sensor_id;sensor_type;location;lat;lon;timestamp;P1;durP1;ratioP1;P2;durP2;ratioP2
46391;SDS011;32098;49.448;7.904;2023-10-13T00:01:23;12.35;;;5.93;;
46391;SDS011;32098;49.448;7.904;2023-10-13T00:03:50;13.48;;;6.57;;
46391;SDS011;32098;49.448;7.904;2023-10-13T00:06:20;9.40;;;6.10;;
46391;SDS011;32098;49.448;7.904;2023-10-13T00:08:47;10.88;;;5.95;;
46391;SDS011;32098;49.448;7.904;2023-10-13T00:11:13;10.30;;;6.80;;
46391;SDS011;32098;49.448;7.904;2023-10-13T00:13:42;11.40;;;6.35;;
46391;SDS011;32098;49.448;7.904;2023-10-13T00:16:09;8.55;;;6.53;;
46391;SDS011;32098;49.448;7.904;2023-10-13T00:18:37;12.52;;;6.05;;
46391;SDS011;32098;49.448;7.904;2023-10-13T00:21:08;10.38;;;6.07;;
46391;SDS011;32098;49.448;7.904;2023-10-13T00:23:46;8.88;;;6.05;;
46391;SDS011;32098;49.448;7.904;2023-10-13T00:26:23;11.15;;;6.22;;
46391;SDS011;32098;49.448;7.904;2023-10-13T00:28:57;11.57;;;6.47;;
46391;SDS011;32098;49.448;7.904;2023-10-13T00:31:27;13.40;;;7.28;;
46391;SDS011;32098;49.448;7.904;2023-10-13T00:34:06;10.90;;;6.68;;
46391;SDS011;32098;49.448;7.904;2023-10-13T00:36:46;11.77;;;6.90;;
46391;SDS011;32098;49.448;7.904;2023-10-13T00:39:36;9.18;;;5.85;;
46391;SDS011;32098;49.448;7.904;2023-10-13T00:42:06;15.07;;;7.03;;
46391;SDS011;32098;49.448;7.904;2023-10-13T00:44:34;12.05;;;6.40;;
46391;SDS011;32098;49.448;7.904;2023-10-13T00:47:15;13.27;;;6.38;;
46391;SDS011;32098;49.448;7.904;2023-10-13T00:49:48;10.48;;;5.90;;
46391;SDS011;32098;49.448;7.904;2023-10-13T00:52:15;9.05;;;5.53;;
46391;SDS011;32098;49.448;7.904;2023-10-13T00:54:45;10.35;;;5.72;;
46391;SDS011;32098;49.448;7.904;2023-10-13T00:57:15;9.88;;;6.45;;
46391;SDS011;32098;49.448;7.904;2023-10-13T00:59:55;12.23;;;6.00;;
46391;SDS011;32098;49.448;7.904;2023-10-13T01:02:27;10.60;;;5.72;;
46391;SDS011;32098;49.448;7.904;2023-10-13T01:05:05;11.20;;;5.63;;
46391;SDS011;32098;49.448;7.904;2023-10-13T01:07:37;12.70;;;6.18;;
46391;SDS011;32098;49.448;7.904;2023-10-13T01:10:04;10.57;;;6.07;;
46391;SDS011;32098;49.448;7.904;2023-10-13T01:12:35;9.35;;;6.28;;
46391;SDS011;32098;49.448;7.904;2023-10-13T01:15:02;10.55;;;5.57;;
46391;SDS011;32098;49.448;7.904;2023-10-13T01:17:35;10.75;;;5.72;;
46391;SDS011;32098;49.448;7.904;2023-10-13T01:20:03;9.27;;;5.85;;
46391;SDS011;32098;49.448;7.904;2023-10-13T01:22:32;10.85;;;6.05;;
46391;SDS011;32098;49.448;7.904;2023-10-13T01:25:00;14.50;;;6.20;;
46391;SDS011;32098;49.448;7.904;2023-10-13T01:27:39;10.98;;;6.03;;
46391;SDS011;32098;49.448;7.904;2023-10-13T01:30:07;11.15;;;6.63;;
46391;SDS011;32098;49.448;7.904;2023-10-13T01:32:49;11.27;;;6.47;;
46391;SDS011;32098;49.448;7.904;2023-10-13T01:35:17;12.95;;;6.07;;
46391;SDS011;32098;49.448;7.904;2023-10-13T01:37:51;11.07;;;6.43;;
46391;SDS011;32098;49.448;7.904;2023-10-13T01:40:18;12.65;;;6.63;;
46391;SDS011;32098;49.448;7.904;2023-10-13T01:42:46;12.55;;;6.53;;
46391;SDS011;32098;49.448;7.904;2023-10-13T01:45:13;8.73;;;5.60;;
46391;SDS011;32098;49.448;7.904;2023-10-13T01:47:40;14.40;;;6.78;;
46391;SDS011;32098;49.448;7.904;2023-10-13T01:50:07;15.80;;;6.53;;
46391;SDS011;32098;49.448;7.904;2023-10-13T01:52:40;11.05;;;6.18;;
46391;SDS011;32098;49.448;7.904;2023-10-13T01:55:10;12.45;;;6.13;;
46391;SDS011;32098;49.448;7.904;2023-10-13T01:57:38;12.35;;;6.35;;
46391;SDS011;32098;49.448;7.904;2023-10-13T02:00:06;14.52;;;6.53;;
46391;SDS011;32098;49.448;7.904;2023-10-13T02:02:54;10.40;;;6.10;;
46391;SDS011;32098;49.448;7.904;2023-10-13T02:05:20;11.88;;;6.25;;
46391;SDS011;32098;49.448;7.904;2023-10-13T02:07:49;10.98;;;6.25;;
46391;SDS011;32098;49.448;7.904;2023-10-13T02:10:17;11.32;;;5.93;;
46391;SDS011;32098;49.448;7.904;2023-10-13T02:12:48;13.05;;;6.63;;
46391;SDS011;32098;49.448;7.904;2023-10-13T02:15:14;13.20;;;6.40;;
46391;SDS011;32098;49.448;7.904;2023-10-13T02:17:53;10.88;;;6.32;;
46391;SDS011;32098;49.448;7.904;2023-10-13T02:20:22;10.02;;;6.18;;
46391;SDS011;32098;49.448;7.904;2023-10-13T02:22:56;15.10;;;6.75;;
46391;SDS011;32098;49.448;7.904;2023-10-13T02:25:23;13.43;;;6.75;;
46391;SDS011;32098;49.448;7.904;2023-10-13T02:28:03;13.57;;;6.07;;
46391;SDS011;32098;49.448;7.904;2023-10-13T02:30:41;12.45;;;6.03;;
46391;SDS011;32098;49.448;7.904;2023-10-13T02:33:12;12.93;;;6.43;;
46391;SDS011;32098;49.448;7.904;2023-10-13T02:35:39;8.15;;;5.75;;
46391;SDS011;32098;49.448;7.904;2023-10-13T02:38:16;11.35;;;5.60;;
46391;SDS011;32098;49.448;7.904;2023-10-13T02:40:54;10.50;;;6.50;;
46391;SDS011;32098;49.448;7.904;2023-10-13T02:43:21;9.63;;;6.10;;
46391;SDS011;32098;49.448;7.904;2023-10-13T02:45:52;11.30;;;6.18;;
46391;SDS011;32098;49.448;7.904;2023-10-13T02:48:29;13.18;;;5.50;;
46391;SDS011;32098;49.448;7.904;2023-10-13T02:51:12;12.27;;;5.80;;
46391;SDS011;32098;49.448;7.904;2023-10-13T02:53:45;14.65;;;6.45;;
46391;SDS011;32098;49.448;7.904;2023-10-13T02:56:15;11.82;;;5.88;;
46391;SDS011;32098;49.448;7.904;2023-10-13T02:58:47;11.45;;;5.80;;
46391;SDS011;32098;49.448;7.904;2023-10-13T03:01:20;10.60;;;6.47;;
46391;SDS011;32098;49.448;7.904;2023-10-13T03:03:49;9.93;;;6.03;;
46391;SDS011;32098;49.448;7.904;2023-10-13T03:06:18;8.80;;;5.60;;
46391;SDS011;32098;49.448;7.904;2023-10-13T03:08:48;10.82;;;5.82;;
46391;SDS011;32098;49.448;7.904;2023-10-13T03:11:15;12.93;;;5.72;;
46391;SDS011;32098;49.448;7.904;2023-10-13T03:13:47;9.40;;;5.70;;
46391;SDS011;32098;49.448;7.904;2023-10-13T03:16:17;12.20;;;5.80;;
46391;SDS011;32098;49.448;7.904;2023-10-13T03:18:47;12.43;;;6.72;;
46391;SDS011;32098;49.448;7.904;2023-10-13T03:21:23;12.57;;;5.95;;
46391;SDS011;32098;49.448;7.904;2023-10-13T03:23:58;14.25;;;5.60;;
46391;SDS011;32098;49.448;7.904;2023-10-13T03:26:33;13.43;;;5.90;;
46391;SDS011;32098;49.448;7.904;2023-10-13T03:29:04;11.15;;;5.68;;
46391;SDS011;32098;49.448;7.904;2023-10-13T03:31:34;9.02;;;5.35;;
46391;SDS011;32098;49.448;7.904;2023-10-13T03:34:04;10.65;;;5.40;;
46391;SDS011;32098;49.448;7.904;2023-10-13T03:36:32;12.40;;;4.97;;
46391;SDS011;32098;49.448;7.904;2023-10-13T03:39:17;13.30;;;5.53;;
46391;SDS011;32098;49.448;7.904;2023-10-13T03:41:43;8.90;;;5.28;;
46391;SDS011;32098;49.448;7.904;2023-10-13T03:44:11;9.45;;;5.22;;
46391;SDS011;32098;49.448;7.904;2023-10-13T03:46:44;10.88;;;5.28;;
46391;SDS011;32098;49.448;7.904;2023-10-13T03:49:15;9.73;;;5.80;;
46391;SDS011;32098;49.448;7.904;2023-10-13T03:51:47;11.23;;;4.65;;
46391;SDS011;32098;49.448;7.904;2023-10-13T03:54:14;8.85;;;4.88;;
46391;SDS011;32098;49.448;7.904;2023-10-13T03:56:43;12.45;;;5.07;;
46391;SDS011;32098;49.448;7.904;2023-10-13T03:59:18;12.70;;;5.50;;
46391;SDS011;32098;49.448;7.904;2023-10-13T04:01:46;10.98;;;5.47;;
46391;SDS011;32098;49.448;7.904;2023-10-13T04:04:29;11.20;;;5.22;;
46391;SDS011;32098;49.448;7.904;2023-10-13T04:06:58;10.70;;;5.78;;
46391;SDS011;32098;49.448;7.904;2023-10-13T04:09:35;10.88;;;5.20;;
46391;SDS011;32098;49.448;7.904;2023-10-13T04:12:03;11.45;;;5.15;;
46391;SDS011;32098;49.448;7.904;2023-10-13T04:14:33;12.25;;;5.07;;
46391;SDS011;32098;49.448;7.904;2023-10-13T04:17:21;9.25;;;5.28;;
46391;SDS011;32098;49.448;7.904;2023-10-13T04:19:56;11.75;;;5.00;;
46391;SDS011;32098;49.448;7.904;2023-10-13T04:25:16;13.52;;;5.47;;
46391;SDS011;32098;49.448;7.904;2023-10-13T04:28:02;12.68;;;5.25;;
46391;SDS011;32098;49.448;7.904;2023-10-13T04:30:43;9.05;;;5.05;;
46391;SDS011;32098;49.448;7.904;2023-10-13T04:36:04;9.25;;;4.95;;
46391;SDS011;32098;49.448;7.904;2023-10-13T04:38:55;12.35;;;5.70;;
46391;SDS011;32098;49.448;7.904;2023-10-13T04:41:32;11.30;;;5.03;;
46391;SDS011;32098;49.448;7.904;2023-10-13T04:44:23;8.02;;;3.40;;
46391;SDS011;32098;49.448;7.904;2023-10-13T04:46:57;9.32;;;4.10;;
46391;SDS011;32098;49.448;7.904;2023-10-13T04:49:28;7.47;;;4.00;;
46391;SDS011;32098;49.448;7.904;2023-10-13T04:52:16;8.55;;;4.53;;
46391;SDS011;32098;49.448;7.904;2023-10-13T04:55:02;7.82;;;3.90;;
46391;SDS011;32098;49.448;7.904;2023-10-13T04:57:45;7.90;;;4.15;;
46391;SDS011;32098;49.448;7.904;2023-10-13T05:00:13;8.35;;;4.20;;
46391;SDS011;32098;49.448;7.904;2023-10-13T05:02:46;8.75;;;4.45;;
46391;SDS011;32098;49.448;7.904;2023-10-13T05:05:32;11.75;;;4.63;;
46391;SDS011;32098;49.448;7.904;2023-10-13T05:08:13;9.13;;;4.68;;
46391;SDS011;32098;49.448;7.904;2023-10-13T05:11:02;9.88;;;4.65;;
46391;SDS011;32098;49.448;7.904;2023-10-13T05:13:48;9.85;;;4.25;;
46391;SDS011;32098;49.448;7.904;2023-10-13T05:16:33;11.88;;;5.05;;
46391;SDS011;32098;49.448;7.904;2023-10-13T05:19:18;10.27;;;5.15;;
46391;SDS011;32098;49.448;7.904;2023-10-13T05:22:03;11.15;;;5.53;;
46391;SDS011;32098;49.448;7.904;2023-10-13T05:24:49;11.35;;;5.50;;
46391;SDS011;32098;49.448;7.904;2023-10-13T05:27:34;9.95;;;5.22;;
46391;SDS011;32098;49.448;7.904;2023-10-13T05:30:19;13.68;;;5.20;;
46391;SDS011;32098;49.448;7.904;2023-10-13T05:33:04;11.55;;;4.75;;
46391;SDS011;32098;49.448;7.904;2023-10-13T05:35:50;12.32;;;5.53;;
46391;SDS011;32098;49.448;7.904;2023-10-13T05:38:35;14.27;;;5.30;;
46391;SDS011;32098;49.448;7.904;2023-10-13T05:41:20;11.13;;;5.32;;
46391;SDS011;32098;49.448;7.904;2023-10-13T05:44:05;13.63;;;5.88;;
46391;SDS011;32098;49.448;7.904;2023-10-13T05:46:50;10.82;;;5.15;;
46391;SDS011;32098;49.448;7.904;2023-10-13T05:49:52;12.90;;;5.20;;
46391;SDS011;32098;49.448;7.904;2023-10-13T05:52:37;9.63;;;5.32;;
46391;SDS011;32098;49.448;7.904;2023-10-13T05:55:22;10.20;;;5.25;;
46391;SDS011;32098;49.448;7.904;2023-10-13T05:58:11;8.35;;;5.15;;
46391;SDS011;32098;49.448;7.904;2023-10-13T06:00:57;10.18;;;5.78;;
46391;SDS011;32098;49.448;7.904;2023-10-13T06:03:43;11.95;;;5.03;;
46391;SDS011;32098;49.448;7.904;2023-10-13T06:06:29;9.90;;;5.38;;
46391;SDS011;32098;49.448;7.904;2023-10-13T06:09:14;11.18;;;5.53;;
46391;SDS011;32098;49.448;7.904;2023-10-13T06:12:00;10.88;;;5.28;;
46391;SDS011;32098;49.448;7.904;2023-10-13T06:14:45;12.57;;;5.28;;
46391;SDS011;32098;49.448;7.904;2023-10-13T06:17:31;11.10;;;5.25;;
46391;SDS011;32098;49.448;7.904;2023-10-13T06:20:16;10.68;;;5.40;;
46391;SDS011;32098;49.448;7.904;2023-10-13T06:23:01;10.18;;;5.03;;
46391;SDS011;32098;49.448;7.904;2023-10-13T06:25:52;11.43;;;5.30;;
46391;SDS011;32098;49.448;7.904;2023-10-13T06:28:40;11.45;;;5.95;;
46391;SDS011;32098;49.448;7.904;2023-10-13T06:31:07;8.95;;;5.38;;
46391;SDS011;32098;49.448;7.904;2023-10-13T06:33:38;8.40;;;5.43;;
46391;SDS011;32098;49.448;7.904;2023-10-13T06:36:11;11.43;;;5.72;;
46391;SDS011;32098;49.448;7.904;2023-10-13T06:38:37;10.00;;;4.95;;
46391;SDS011;32098;49.448;7.904;2023-10-13T06:41:05;9.15;;;5.40;;
46391;SDS011;32098;49.448;7.904;2023-10-13T06:43:35;9.23;;;5.53;;
46391;SDS011;32098;49.448;7.904;2023-10-13T06:46:06;10.60;;;5.57;;
46391;SDS011;32098;49.448;7.904;2023-10-13T06:48:34;14.50;;;5.78;;
46391;SDS011;32098;49.448;7.904;2023-10-13T06:51:01;7.70;;;5.15;;
46391;SDS011;32098;49.448;7.904;2023-10-13T06:53:46;10.60;;;5.80;;
46391;SDS011;32098;49.448;7.904;2023-10-13T06:56:14;8.73;;;4.80;;
46391;SDS011;32098;49.448;7.904;2023-10-13T06:58:55;8.32;;;5.03;;
46391;SDS011;32098;49.448;7.904;2023-10-13T07:01:26;9.20;;;5.47;;
46391;SDS011;32098;49.448;7.904;2023-10-13T07:03:53;11.20;;;5.43;;
46391;SDS011;32098;49.448;7.904;2023-10-13T07:06:20;9.30;;;5.25;;
46391;SDS011;32098;49.448;7.904;2023-10-13T07:08:47;8.13;;;5.05;;
46391;SDS011;32098;49.448;7.904;2023-10-13T07:11:27;8.50;;;5.15;;
46391;SDS011;32098;49.448;7.904;2023-10-13T07:14:00;8.43;;;5.13;;
46391;SDS011;32098;49.448;7.904;2023-10-13T07:16:42;7.88;;;4.97;;
46391;SDS011;32098;49.448;7.904;2023-10-13T07:19:13;10.07;;;5.22;;
46391;SDS011;32098;49.448;7.904;2023-10-13T07:21:46;9.60;;;4.97;;
46391;SDS011;32098;49.448;7.904;2023-10-13T07:24:13;9.52;;;5.32;;
46391;SDS011;32098;49.448;7.904;2023-10-13T07:26:40;9.23;;;5.00;;
46391;SDS011;32098;49.448;7.904;2023-10-13T07:29:10;6.10;;;4.60;;
46391;SDS011;32098;49.448;7.904;2023-10-13T07:31:37;6.97;;;4.50;;
46391;SDS011;32098;49.448;7.904;2023-10-13T07:34:07;7.05;;;4.43;;
46391;SDS011;32098;49.448;7.904;2023-10-13T07:36:52;9.75;;;4.88;;
46391;SDS011;32098;49.448;7.904;2023-10-13T07:39:20;7.18;;;5.03;;
46391;SDS011;32098;49.448;7.904;2023-10-13T07:41:59;8.00;;;5.05;;
46391;SDS011;32098;49.448;7.904;2023-10-13T07:44:45;7.97;;;5.18;;
46391;SDS011;32098;49.448;7.904;2023-10-13T07:47:13;10.52;;;5.30;;
46391;SDS011;32098;49.448;7.904;2023-10-13T07:49:41;6.97;;;4.80;;
46391;SDS011;32098;49.448;7.904;2023-10-13T07:52:09;7.57;;;4.78;;
46391;SDS011;32098;49.448;7.904;2023-10-13T07:54:50;9.07;;;4.78;;
46391;SDS011;32098;49.448;7.904;2023-10-13T07:57:37;6.10;;;4.63;;
46391;SDS011;32098;49.448;7.904;2023-10-13T08:00:22;6.90;;;4.68;;
46391;SDS011;32098;49.448;7.904;2023-10-13T08:03:13;8.40;;;4.90;;
46391;SDS011;32098;49.448;7.904;2023-10-13T08:05:44;9.55;;;5.00;;
46391;SDS011;32098;49.448;7.904;2023-10-13T08:08:47;9.18;;;5.18;;
46391;SDS011;32098;49.448;7.904;2023-10-13T08:11:20;8.48;;;5.20;;
46391;SDS011;32098;49.448;7.904;2023-10-13T08:13:52;8.63;;;5.22;;
46391;SDS011;32098;49.448;7.904;2023-10-13T08:16:33;8.85;;;4.60;;
46391;SDS011;32098;49.448;7.904;2023-10-13T08:19:13;7.63;;;4.93;;
46391;SDS011;32098;49.448;7.904;2023-10-13T08:21:45;8.10;;;4.93;;
46391;SDS011;32098;49.448;7.904;2023-10-13T08:24:18;6.53;;;5.00;;
46391;SDS011;32098;49.448;7.904;2023-10-13T08:26:55;7.47;;;4.82;;
46391;SDS011;32098;49.448;7.904;2023-10-13T08:32:23;8.68;;;5.43;;
46391;SDS011;32098;49.448;7.904;2023-10-13T08:34:56;8.55;;;5.45;;
46391;SDS011;32098;49.448;7.904;2023-10-13T08:37:30;8.00;;;5.50;;
46391;SDS011;32098;49.448;7.904;2023-10-13T08:40:01;9.35;;;5.60;;
46391;SDS011;32098;49.448;7.904;2023-10-13T08:42:47;10.55;;;5.40;;
46391;SDS011;32098;49.448;7.904;2023-10-13T08:45:37;6.38;;;5.40;;
46391;SDS011;32098;49.448;7.904;2023-10-13T08:48:11;7.28;;;5.13;;
46391;SDS011;32098;49.448;7.904;2023-10-13T08:50:43;7.10;;;5.22;;
46391;SDS011;32098;49.448;7.904;2023-10-13T08:53:21;7.22;;;5.00;;
46391;SDS011;32098;49.448;7.904;2023-10-13T08:58:34;7.55;;;5.57;;
46391;SDS011;32098;49.448;7.904;2023-10-13T09:01:24;11.38;;;5.35;;
46391;SDS011;32098;49.448;7.904;2023-10-13T09:04:11;7.78;;;5.13;;
46391;SDS011;32098;49.448;7.904;2023-10-13T09:06:53;8.18;;;4.97;;
46391;SDS011;32098;49.448;7.904;2023-10-13T09:09:27;8.43;;;4.78;;
46391;SDS011;32098;49.448;7.904;2023-10-13T09:12:06;6.07;;;4.78;;
46391;SDS011;32098;49.448;7.904;2023-10-13T09:14:41;7.90;;;5.15;;
46391;SDS011;32098;49.448;7.904;2023-10-13T09:17:12;6.00;;;4.70;;
46391;SDS011;32098;49.448;7.904;2023-10-13T09:20:03;8.73;;;4.80;;
46391;SDS011;32098;49.448;7.904;2023-10-13T09:22:49;11.60;;;5.32;;
46391;SDS011;32098;49.448;7.904;2023-10-13T09:25:40;5.70;;;4.32;;
46391;SDS011;32098;49.448;7.904;2023-10-13T09:28:20;7.85;;;4.80;;
46391;SDS011;32098;49.448;7.904;2023-10-13T09:30:53;7.82;;;4.85;;
46391;SDS011;32098;49.448;7.904;2023-10-13T09:33:24;7.25;;;4.75;;
46391;SDS011;32098;49.448;7.904;2023-10-13T09:36:12;6.57;;;4.68;;
46391;SDS011;32098;49.448;7.904;2023-10-13T09:38:39;5.57;;;4.35;;
46391;SDS011;32098;49.448;7.904;2023-10-13T09:41:06;9.32;;;4.97;;
46391;SDS011;32098;49.448;7.904;2023-10-13T09:43:47;9.00;;;4.63;;
46391;SDS011;32098;49.448;7.904;2023-10-13T09:46:21;7.75;;;4.70;;
46391;SDS011;32098;49.448;7.904;2023-10-13T09:48:54;7.93;;;4.90;;
46391;SDS011;32098;49.448;7.904;2023-10-13T09:51:41;7.70;;;4.72;;
46391;SDS011;32098;49.448;7.904;2023-10-13T09:57:01;7.05;;;4.72;;
46391;SDS011;32098;49.448;7.904;2023-10-13T09:59:49;10.40;;;4.95;;
46391;SDS011;32098;49.448;7.904;2023-10-13T10:02:19;8.25;;;4.85;;
46391;SDS011;32098;49.448;7.904;2023-10-13T10:04:54;7.82;;;4.93;;
46391;SDS011;32098;49.448;7.904;2023-10-13T10:07:42;7.05;;;4.90;;
46391;SDS011;32098;49.448;7.904;2023-10-13T10:10:10;5.50;;;4.43;;
46391;SDS011;32098;49.448;7.904;2023-10-13T10:18:02;6.28;;;4.32;;
46391;SDS011;32098;49.448;7.904;2023-10-13T10:20:34;7.13;;;4.78;;
46391;SDS011;32098;49.448;7.904;2023-10-13T10:23:10;6.75;;;5.10;;
46391;SDS011;32098;49.448;7.904;2023-10-13T10:25:48;6.22;;;4.85;;
46391;SDS011;32098;49.448;7.904;2023-10-13T10:28:16;5.47;;;4.15;;
46391;SDS011;32098;49.448;7.904;2023-10-13T10:30:45;7.65;;;4.47;;
46391;SDS011;32098;49.448;7.904;2023-10-13T10:33:12;7.90;;;5.38;;
46391;SDS011;32098;49.448;7.904;2023-10-13T10:35:43;6.40;;;4.38;;
46391;SDS011;32098;49.448;7.904;2023-10-13T10:38:14;7.53;;;4.43;;
46391;SDS011;32098;49.448;7.904;2023-10-13T10:43:27;6.78;;;4.57;;
46391;SDS011;32098;49.448;7.904;2023-10-13T10:45:59;11.05;;;4.72;;
46391;SDS011;32098;49.448;7.904;2023-10-13T10:48:26;7.57;;;4.70;;
46391;SDS011;32098;49.448;7.904;2023-10-13T10:50:59;7.10;;;4.50;;
46391;SDS011;32098;49.448;7.904;2023-10-13T10:53:33;6.30;;;4.22;;
46391;SDS011;32098;49.448;7.904;2023-10-13T10:56:10;7.28;;;4.85;;
46391;SDS011;32098;49.448;7.904;2023-10-13T10:58:49;8.77;;;4.50;;
46391;SDS011;32098;49.448;7.904;2023-10-13T11:01:24;5.78;;;3.90;;
46391;SDS011;32098;49.448;7.904;2023-10-13T11:04:01;5.50;;;4.78;;
46391;SDS011;32098;49.448;7.904;2023-10-13T11:06:35;8.10;;;4.47;;
46391;SDS011;32098;49.448;7.904;2023-10-13T11:09:09;8.15;;;4.05;;
46391;SDS011;32098;49.448;7.904;2023-10-13T11:11:45;8.73;;;4.60;;
46391;SDS011;32098;49.448;7.904;2023-10-13T11:14:19;6.18;;;4.50;;
46391;SDS011;32098;49.448;7.904;2023-10-13T11:16:49;5.22;;;4.13;;
46391;SDS011;32098;49.448;7.904;2023-10-13T11:19:17;7.80;;;4.65;;
46391;SDS011;32098;49.448;7.904;2023-10-13T11:21:52;6.78;;;4.53;;
46391;SDS011;32098;49.448;7.904;2023-10-13T11:24:20;5.68;;;4.60;;
46391;SDS011;32098;49.448;7.904;2023-10-13T11:26:48;9.63;;;4.40;;
46391;SDS011;32098;49.448;7.904;2023-10-13T11:29:19;9.90;;;4.40;;
46391;SDS011;32098;49.448;7.904;2023-10-13T11:31:46;6.95;;;4.45;;
46391;SDS011;32098;49.448;7.904;2023-10-13T11:34:20;7.95;;;4.15;;
46391;SDS011;32098;49.448;7.904;2023-10-13T11:36:47;4.80;;;3.97;;
46391;SDS011;32098;49.448;7.904;2023-10-13T11:39:13;7.38;;;3.92;;
46391;SDS011;32098;49.448;7.904;2023-10-13T11:41:48;8.40;;;4.18;;
46391;SDS011;32098;49.448;7.904;2023-10-13T11:44:21;6.97;;;3.90;;
46391;SDS011;32098;49.448;7.904;2023-10-13T11:46:52;6.47;;;4.18;;
46391;SDS011;32098;49.448;7.904;2023-10-13T11:49:22;7.15;;;4.18;;
46391;SDS011;32098;49.448;7.904;2023-10-13T11:52:00;7.13;;;4.15;;
46391;SDS011;32098;49.448;7.904;2023-10-13T11:54:42;8.93;;;3.72;;
46391;SDS011;32098;49.448;7.904;2023-10-13T11:57:09;7.93;;;4.28;;
46391;SDS011;32098;49.448;7.904;2023-10-13T11:59:36;7.43;;;4.10;;
46391;SDS011;32098;49.448;7.904;2023-10-13T12:02:10;6.18;;;4.10;;
46391;SDS011;32098;49.448;7.904;2023-10-13T12:04:38;7.57;;;4.32;;
46391;SDS011;32098;49.448;7.904;2023-10-13T12:07:40;6.10;;;4.20;;
46391;SDS011;32098;49.448;7.904;2023-10-13T12:10:15;7.82;;;3.90;;
46391;SDS011;32098;49.448;7.904;2023-10-13T12:12:43;9.98;;;4.28;;
46391;SDS011;32098;49.448;7.904;2023-10-13T12:15:11;7.07;;;3.88;;
46391;SDS011;32098;49.448;7.904;2023-10-13T12:17:52;6.25;;;3.80;;
46391;SDS011;32098;49.448;7.904;2023-10-13T12:20:19;6.82;;;3.88;;
46391;SDS011;32098;49.448;7.904;2023-10-13T12:22:59;7.25;;;3.95;;
46391;SDS011;32098;49.448;7.904;2023-10-13T12:25:39;7.18;;;4.30;;
46391;SDS011;32098;49.448;7.904;2023-10-13T12:28:23;7.45;;;3.63;;
46391;SDS011;32098;49.448;7.904;2023-10-13T12:30:53;7.88;;;3.90;;
46391;SDS011;32098;49.448;7.904;2023-10-13T12:33:21;7.78;;;3.78;;
46391;SDS011;32098;49.448;7.904;2023-10-13T12:35:58;6.78;;;3.72;;
46391;SDS011;32098;49.448;7.904;2023-10-13T12:38:40;9.38;;;4.20;;
46391;SDS011;32098;49.448;7.904;2023-10-13T12:41:19;5.28;;;3.85;;
46391;SDS011;32098;49.448;7.904;2023-10-13T12:44:05;8.25;;;3.75;;
46391;SDS011;32098;49.448;7.904;2023-10-13T12:46:52;9.10;;;4.07;;
46391;SDS011;32098;49.448;7.904;2023-10-13T12:49:38;7.60;;;3.63;;
46391;SDS011;32098;49.448;7.904;2023-10-13T12:52:09;5.85;;;3.72;;
46391;SDS011;32098;49.448;7.904;2023-10-13T12:54:55;7.43;;;4.10;;
46391;SDS011;32098;49.448;7.904;2023-10-13T12:57:25;6.70;;;4.15;;
46391;SDS011;32098;49.448;7.904;2023-10-13T12:59:56;7.18;;;3.88;;
46391;SDS011;32098;49.448;7.904;2023-10-13T13:02:24;9.52;;;3.92;;
46391;SDS011;32098;49.448;7.904;2023-10-13T13:04:53;6.00;;;3.60;;
46391;SDS011;32098;49.448;7.904;2023-10-13T13:07:32;7.47;;;3.50;;
46391;SDS011;32098;49.448;7.904;2023-10-13T13:10:10;7.47;;;4.43;;
46391;SDS011;32098;49.448;7.904;2023-10-13T13:12:38;6.72;;;3.78;;
46391;SDS011;32098;49.448;7.904;2023-10-13T13:15:04;7.63;;;3.72;;
46391;SDS011;32098;49.448;7.904;2023-10-13T13:17:38;7.00;;;3.33;;
46391;SDS011;32098;49.448;7.904;2023-10-13T13:20:06;9.95;;;3.92;;
46391;SDS011;32098;49.448;7.904;2023-10-13T13:22:52;7.82;;;3.00;;
46391;SDS011;32098;49.448;7.904;2023-10-13T13:25:20;6.93;;;3.85;;
46391;SDS011;32098;49.448;7.904;2023-10-13T13:27:57;4.45;;;3.50;;
46391;SDS011;32098;49.448;7.904;2023-10-13T13:30:24;6.28;;;3.30;;
46391;SDS011;32098;49.448;7.904;2023-10-13T13:32:56;6.93;;;3.60;;
46391;SDS011;32098;49.448;7.904;2023-10-13T13:35:26;6.53;;;3.92;;
46391;SDS011;32098;49.448;7.904;2023-10-13T13:37:59;4.97;;;3.40;;
46391;SDS011;32098;49.448;7.904;2023-10-13T13:40:38;8.55;;;3.72;;
46391;SDS011;32098;49.448;7.904;2023-10-13T13:43:05;7.50;;;4.07;;
46391;SDS011;32098;49.448;7.904;2023-10-13T13:45:44;5.03;;;3.33;;
46391;SDS011;32098;49.448;7.904;2023-10-13T13:48:11;6.88;;;3.65;;
46391;SDS011;32098;49.448;7.904;2023-10-13T13:50:43;8.43;;;3.47;;
46391;SDS011;32098;49.448;7.904;2023-10-13T13:53:10;8.07;;;3.97;;
46391;SDS011;32098;49.448;7.904;2023-10-13T13:55:37;9.20;;;3.20;;
46391;SDS011;32098;49.448;7.904;2023-10-13T13:58:06;5.55;;;3.60;;
46391;SDS011;32098;49.448;7.904;2023-10-13T14:00:35;6.25;;;3.00;;
46391;SDS011;32098;49.448;7.904;2023-10-13T14:03:04;6.93;;;3.22;;
46391;SDS011;32098;49.448;7.904;2023-10-13T14:05:32;6.07;;;3.08;;
46391;SDS011;32098;49.448;7.904;2023-10-13T14:07:59;6.72;;;3.33;;
46391;SDS011;32098;49.448;7.904;2023-10-13T14:10:26;7.55;;;3.40;;
46391;SDS011;32098;49.448;7.904;2023-10-13T14:13:19;7.97;;;3.25;;
46391;SDS011;32098;49.448;7.904;2023-10-13T14:15:48;6.25;;;3.40;;
46391;SDS011;32098;49.448;7.904;2023-10-13T14:18:15;5.22;;;2.72;;
46391;SDS011;32098;49.448;7.904;2023-10-13T14:20:43;8.20;;;3.30;;
46391;SDS011;32098;49.448;7.904;2023-10-13T14:23:11;10.57;;;3.60;;
46391;SDS011;32098;49.448;7.904;2023-10-13T14:25:38;13.80;;;4.90;;
46391;SDS011;32098;49.448;7.904;2023-10-13T14:28:10;8.85;;;3.28;;
46391;SDS011;32098;49.448;7.904;2023-10-13T14:30:41;5.15;;;3.38;;
46391;SDS011;32098;49.448;7.904;2023-10-13T14:33:08;12.10;;;3.60;;
46391;SDS011;32098;49.448;7.904;2023-10-13T14:35:38;6.38;;;3.10;;
46391;SDS011;32098;49.448;7.904;2023-10-13T14:38:04;8.05;;;4.70;;
46391;SDS011;32098;49.448;7.904;2023-10-13T14:40:32;7.70;;;3.75;;
46391;SDS011;32098;49.448;7.904;2023-10-13T14:42:59;6.80;;;3.30;;
46391;SDS011;32098;49.448;7.904;2023-10-13T14:45:25;5.88;;;3.20;;
46391;SDS011;32098;49.448;7.904;2023-10-13T14:47:52;5.88;;;3.28;;
46391;SDS011;32098;49.448;7.904;2023-10-13T14:50:19;6.65;;;3.30;;
46391;SDS011;32098;49.448;7.904;2023-10-13T14:52:46;3.80;;;2.75;;
46391;SDS011;32098;49.448;7.904;2023-10-13T14:55:15;6.72;;;2.90;;
46391;SDS011;32098;49.448;7.904;2023-10-13T14:57:48;8.32;;;3.13;;
46391;SDS011;32098;49.448;7.904;2023-10-13T15:00:17;9.25;;;3.20;;
46391;SDS011;32098;49.448;7.904;2023-10-13T15:02:53;4.75;;;2.60;;
46391;SDS011;32098;49.448;7.904;2023-10-13T15:05:21;5.55;;;2.83;;
46391;SDS011;32098;49.448;7.904;2023-10-13T15:07:48;6.30;;;2.58;;
46391;SDS011;32098;49.448;7.904;2023-10-13T15:10:15;8.43;;;2.97;;
46391;SDS011;32098;49.448;7.904;2023-10-13T15:12:42;7.72;;;3.00;;
46391;SDS011;32098;49.448;7.904;2023-10-13T15:15:11;6.07;;;3.08;;
46391;SDS011;32098;49.448;7.904;2023-10-13T15:17:42;5.50;;;2.80;;
46391;SDS011;32098;49.448;7.904;2023-10-13T15:20:10;6.78;;;2.90;;
46391;SDS011;32098;49.448;7.904;2023-10-13T15:22:43;7.20;;;3.05;;
46391;SDS011;32098;49.448;7.904;2023-10-13T15:25:10;4.47;;;2.80;;
46391;SDS011;32098;49.448;7.904;2023-10-13T15:27:58;5.53;;;2.55;;
46391;SDS011;32098;49.448;7.904;2023-10-13T15:30:29;8.40;;;3.20;;
46391;SDS011;32098;49.448;7.904;2023-10-13T15:33:22;6.53;;;2.90;;
46391;SDS011;32098;49.448;7.904;2023-10-13T15:35:49;7.10;;;2.95;;
46391;SDS011;32098;49.448;7.904;2023-10-13T15:38:18;6.38;;;3.50;;
46391;SDS011;32098;49.448;7.904;2023-10-13T15:40:47;6.82;;;3.38;;
46391;SDS011;32098;49.448;7.904;2023-10-13T15:43:21;5.80;;;2.83;;
46391;SDS011;32098;49.448;7.904;2023-10-13T15:45:48;5.13;;;2.97;;
46391;SDS011;32098;49.448;7.904;2023-10-13T15:48:14;7.55;;;2.90;;